Time;durP1;ratioP1;P1;durP2;ratioP2;P2;SDS_P1;SDS_P2;PMS_P1;PMS_P2;Temp;Humidity;BMP_temperature;BMP_pressure;BME280_temperature;BME280_humidity;BME280_pressure;Samples;Min_cycle;Max_cycle;Signal;HPM_P1;HPM_P2
2021/12/30 00:02:19;;;;;;;49.25;16.00;;;;;;;;;;5049388;28;20033;-82
2021/12/30 00:04:45;;;;;;;39.65;15.95;;;;;;;;;;5046765;28;20047;-83
2021/12/30 00:07:11;;;;;;;48.33;16.95;;;;;;;;;;5063811;28;20072;-83
2021/12/30 00:09:37;;;;;;;34.40;15.45;;;;;;;;;;5046623;28;20036;-86
2021/12/30 00:12:04;;;;;;;45.17;15.52;;;;;;;;;;5046812;28;20175;-83
2021/12/30 00:14:29;;;;;;;40.33;15.00;;;;;;;;;;5044242;28;20033;-81
2021/12/30 00:16:55;;;;;;;35.05;14.25;;;;;;;;;;5061777;28;20045;-82
2021/12/30 00:19:21;;;;;;;38.60;14.40;;;;;;;;;;5046709;28;20037;-82
2021/12/30 00:21:47;;;;;;;32.67;13.23;;;;;;;;;;5061633;28;20037;-82
2021/12/30 00:24:13;;;;;;;41.78;12.63;;;;;;;;;;5047145;28;20041;-82
2021/12/30 00:26:40;;;;;;;42.90;12.13;;;;;;;;;;5061699;28;20029;-82
2021/12/30 00:29:06;;;;;;;32.08;10.35;;;;;;;;;;5048768;28;20040;-82
2021/12/30 00:31:32;;;;;;;34.25;9.68;;;;;;;;;;5047186;28;20055;-84
2021/12/30 00:33:58;;;;;;;36.25;9.52;;;;;;;;;;5047577;28;20047;-82
2021/12/30 00:36:24;;;;;;;35.65;9.80;;;;;;;;;;5045451;28;20041;-81
2021/12/30 00:38:50;;;;;;;37.88;8.77;;;;;;;;;;5063250;28;20033;-83
2021/12/30 00:41:18;;;;;;;30.67;9.07;;;;;;;;;;5046909;28;20045;-82
2021/12/30 00:43:44;;;;;;;39.33;9.38;;;;;;;;;;5046941;28;20467;-81
2021/12/30 00:46:10;;;;;;;34.72;8.63;;;;;;;;;;5046833;28;20045;-82
2021/12/30 00:48:36;;;;;;;27.38;8.77;;;;;;;;;;5060413;28;20053;-81
2021/12/30 00:51:02;;;;;;;31.35;8.88;;;;;;;;;;5043904;28;20049;-82
2021/12/30 00:53:28;;;;;;;35.55;8.52;;;;;;;;;;5061296;28;20364;-83
2021/12/30 00:55:54;;;;;;;35.88;8.38;;;;;;;;;;5062635;28;20037;-83
2021/12/30 00:58:20;;;;;;;29.48;8.20;;;;;;;;;;5045409;28;20041;-82
2021/12/30 01:00:46;;;;;;;30.98;7.45;;;;;;;;;;5062228;28;20468;-83
2021/12/30 01:03:13;;;;;;;32.33;8.50;;;;;;;;;;5043782;28;20433;-80
2021/12/30 01:05:39;;;;;;;33.47;8.13;;;;;;;;;;5046327;28;20041;-79
2021/12/30 01:08:08;;;;;;;30.38;7.45;;;;;;;;;;5051190;28;20075;-82
2021/12/30 01:10:37;;;;;;;33.60;8.13;;;;;;;;;;5067352;28;20471;-79
2021/12/30 01:13:06;;;;;;;37.03;8.45;;;;;;;;;;5047649;28;20037;-81
2021/12/30 01:15:46;;;;;;;33.20;8.07;;;;;;;;;;5048635;28;20359;-79
2021/12/30 01:18:27;;;;;;;28.88;7.28;;;;;;;;;;5056345;28;20076;-82
2021/12/30 01:20:56;;;;;;;38.72;7.68;;;;;;;;;;5051938;28;20057;-81
2021/12/30 01:23:22;;;;;;;30.92;7.22;;;;;;;;;;5049571;28;20037;-81
2021/12/30 01:25:49;;;;;;;31.55;7.63;;;;;;;;;;5064266;28;20065;-82
2021/12/30 01:28:15;;;;;;;31.17;7.18;;;;;;;;;;5046221;28;20033;-81
2021/12/30 01:30:41;;;;;;;38.05;7.45;;;;;;;;;;5047245;28;20055;-84
2021/12/30 01:33:07;;;;;;;33.40;7.45;;;;;;;;;;5051775;28;20048;-83
2021/12/30 01:35:33;;;;;;;35.83;6.70;;;;;;;;;;5048927;28;20041;-81
2021/12/30 01:38:01;;;;;;;36.63;7.35;;;;;;;;;;5065196;28;20064;-83
2021/12/30 01:40:27;;;;;;;25.15;6.32;;;;;;;;;;5065064;28;20041;-81
2021/12/30 01:42:53;;;;;;;23.73;6.15;;;;;;;;;;5063273;28;20041;-82
2021/12/30 01:45:19;;;;;;;31.63;6.15;;;;;;;;;;5048389;28;20098;-82
2021/12/30 01:47:53;;;;;;;27.10;6.07;;;;;;;;;;5050468;28;20127;-82
2021/12/30 01:50:21;;;;;;;36.05;7.28;;;;;;;;;;5035452;28;20049;-82
2021/12/30 01:52:47;;;;;;;34.78;7.25;;;;;;;;;;5066672;28;20049;-82
2021/12/30 01:55:13;;;;;;;32.20;7.63;;;;;;;;;;5066214;28;20048;-82
2021/12/30 01:57:40;;;;;;;34.90;7.82;;;;;;;;;;5066150;28;20066;-81
2021/12/30 02:00:07;;;;;;;34.67;7.65;;;;;;;;;;5066102;28;20045;-82
2021/12/30 02:02:33;;;;;;;36.28;8.05;;;;;;;;;;5049100;28;20068;-82
2021/12/30 02:04:59;;;;;;;41.58;7.68;;;;;;;;;;5066181;28;20362;-81
2021/12/30 02:07:25;;;;;;;44.33;8.10;;;;;;;;;;5047849;28;20037;-83
2021/12/30 02:09:53;;;;;;;30.92;8.00;;;;;;;;;;5064827;28;20070;-83
2021/12/30 02:12:19;;;;;;;30.70;7.70;;;;;;;;;;5046830;28;20516;-83
2021/12/30 02:14:45;;;;;;;38.05;8.15;;;;;;;;;;5044628;28;20108;-84
2021/12/30 02:17:11;;;;;;;33.03;8.20;;;;;;;;;;5061742;28;20083;-83
2021/12/30 02:19:37;;;;;;;26.88;7.28;;;;;;;;;;5064010;28;20037;-83
2021/12/30 02:22:03;;;;;;;34.38;8.05;;;;;;;;;;5063691;28;20433;-84
2021/12/30 02:24:29;;;;;;;36.35;7.80;;;;;;;;;;5062971;28;20044;-83
2021/12/30 02:26:55;;;;;;;37.15;7.88;;;;;;;;;;5045279;28;20045;-82
2021/12/30 02:29:21;;;;;;;31.13;8.60;;;;;;;;;;5047928;28;20049;-81
2021/12/30 02:31:47;;;;;;;35.67;8.27;;;;;;;;;;5046206;28;20445;-82
2021/12/30 02:34:15;;;;;;;37.97;8.40;;;;;;;;;;5062796;28;20037;-82
2021/12/30 02:36:41;;;;;;;36.70;8.07;;;;;;;;;;5046065;28;20052;-81
2021/12/30 02:39:08;;;;;;;41.30;7.50;;;;;;;;;;5045954;28;20029;-82
2021/12/30 02:41:35;;;;;;;38.25;8.48;;;;;;;;;;5061782;28;20369;-82
2021/12/30 02:44:02;;;;;;;30.98;8.07;;;;;;;;;;5045586;28;20087;-81
2021/12/30 02:46:29;;;;;;;30.60;7.63;;;;;;;;;;5049120;28;20040;-83
2021/12/30 02:48:55;;;;;;;27.92;7.15;;;;;;;;;;5048484;28;20053;-84
2021/12/30 02:51:21;;;;;;;32.92;7.90;;;;;;;;;;5066353;28;20060;-81
2021/12/30 02:53:48;;;;;;;33.08;7.95;;;;;;;;;;5047768;28;20127;-82
2021/12/30 02:56:14;;;;;;;39.20;8.60;;;;;;;;;;5048605;28;20033;-82
2021/12/30 02:58:40;;;;;;;28.27;7.38;;;;;;;;;;5066510;28;20043;-81
2021/12/30 03:01:19;;;;;;;39.90;7.78;;;;;;;;;;5049240;28;20163;-82
2021/12/30 03:03:45;;;;;;;25.30;7.40;;;;;;;;;;5065920;28;20455;-83
2021/12/30 03:06:11;;;;;;;37.53;8.60;;;;;;;;;;5065184;28;20049;-81
2021/12/30 03:08:39;;;;;;;28.50;8.02;;;;;;;;;;5048629;28;20061;-81
2021/12/30 03:11:05;;;;;;;39.50;9.27;;;;;;;;;;5046826;28;20345;-82
2021/12/30 03:13:32;;;;;;;28.08;9.73;;;;;;;;;;5062094;28;20094;-81
2021/12/30 03:16:05;;;;;;;36.38;10.77;;;;;;;;;;5044938;28;20092;-83
2021/12/30 03:18:32;;;;;;;35.58;10.85;;;;;;;;;;5044356;28;20036;-80
2021/12/30 03:20:58;;;;;;;29.40;9.85;;;;;;;;;;5046516;28;20427;-81
2021/12/30 03:23:24;;;;;;;32.50;10.30;;;;;;;;;;5045394;28;20044;-82
2021/12/30 03:25:50;;;;;;;30.13;11.23;;;;;;;;;;5061566;28;20060;-81
2021/12/30 03:28:16;;;;;;;26.33;10.80;;;;;;;;;;5048090;28;20045;-81
2021/12/30 03:30:42;;;;;;;33.42;10.77;;;;;;;;;;5048010;28;20036;-82
2021/12/30 03:33:08;;;;;;;27.73;10.43;;;;;;;;;;5047741;28;20041;-82
2021/12/30 03:35:34;;;;;;;28.90;10.90;;;;;;;;;;5064470;28;20090;-82
2021/12/30 03:38:00;;;;;;;24.77;10.68;;;;;;;;;;5047420;28;20049;-81
2021/12/30 03:40:26;;;;;;;36.63;10.85;;;;;;;;;;5046489;28;20334;-81
2021/12/30 03:42:52;;;;;;;26.35;10.90;;;;;;;;;;5044289;28;20353;-80
2021/12/30 03:45:18;;;;;;;29.38;11.48;;;;;;;;;;5047009;28;20075;-82
2021/12/30 03:47:46;;;;;;;26.40;11.65;;;;;;;;;;5042891;28;20053;-80
2021/12/30 03:50:18;;;;;;;22.33;11.15;;;;;;;;;;5060026;28;20041;-81
2021/12/30 03:52:44;;;;;;;28.70;12.15;;;;;;;;;;5060401;28;20061;-81
2021/12/30 03:55:10;;;;;;;23.58;11.35;;;;;;;;;;5044066;28;20363;-81
2021/12/30 03:57:38;;;;;;;32.42;12.90;;;;;;;;;;5045317;28;20037;-82
2021/12/30 04:00:04;;;;;;;28.50;12.73;;;;;;;;;;5062061;28;20061;-82
2021/12/30 04:02:30;;;;;;;26.25;11.98;;;;;;;;;;5064428;28;20044;-82
2021/12/30 04:04:56;;;;;;;28.85;11.23;;;;;;;;;;5066374;28;20055;-82
2021/12/30 04:07:22;;;;;;;20.60;10.77;;;;;;;;;;5047701;28;20064;-81
2021/12/30 04:09:48;;;;;;;25.70;11.20;;;;;;;;;;5063872;28;20041;-83
2021/12/30 04:12:15;;;;;;;24.73;11.40;;;;;;;;;;5064520;28;20041;-83
2021/12/30 04:14:41;;;;;;;27.17;12.23;;;;;;;;;;5064055;28;20041;-82
2021/12/30 04:17:07;;;;;;;24.67;12.73;;;;;;;;;;5064007;28;20037;-82
2021/12/30 04:19:33;;;;;;;23.35;12.93;;;;;;;;;;5047458;28;20043;-81
2021/12/30 04:21:59;;;;;;;21.27;12.18;;;;;;;;;;5046607;28;20036;-82
2021/12/30 04:24:25;;;;;;;22.70;12.52;;;;;;;;;;5060442;28;20475;-82
2021/12/30 04:26:51;;;;;;;21.23;13.18;;;;;;;;;;5046536;28;20036;-81
2021/12/30 04:29:18;;;;;;;22.95;12.73;;;;;;;;;;5046114;28;20033;-83
2021/12/30 04:31:44;;;;;;;20.63;12.88;;;;;;;;;;5046826;28;20033;-82
2021/12/30 04:34:10;;;;;;;25.33;12.23;;;;;;;;;;5047226;28;20443;-81
2021/12/30 04:36:36;;;;;;;22.20;12.93;;;;;;;;;;5063290;28;20045;-80
2021/12/30 04:39:02;;;;;;;26.63;12.55;;;;;;;;;;5050926;28;20037;-81
2021/12/30 04:41:28;;;;;;;27.33;14.40;;;;;;;;;;5067080;28;20452;-82
2021/12/30 04:43:54;;;;;;;20.20;13.15;;;;;;;;;;5067134;28;20060;-81
2021/12/30 04:46:20;;;;;;;23.80;14.30;;;;;;;;;;5065310;28;20041;-82
2021/12/30 04:48:47;;;;;;;21.80;13.50;;;;;;;;;;5049563;28;20392;-82
2021/12/30 04:51:13;;;;;;;26.20;13.80;;;;;;;;;;5048536;28;20044;-81
2021/12/30 04:53:39;;;;;;;19.70;12.45;;;;;;;;;;5065172;28;20041;-82
2021/12/30 04:56:05;;;;;;;22.60;11.27;;;;;;;;;;5047305;28;20126;-82
2021/12/30 04:58:31;;;;;;;15.23;9.60;;;;;;;;;;5047796;28;20041;-82
2021/12/30 05:00:57;;;;;;;15.13;9.65;;;;;;;;;;5047584;28;20051;-83
2021/12/30 05:03:23;;;;;;;15.45;7.97;;;;;;;;;;5047668;28;20072;-82
2021/12/30 05:05:51;;;;;;;12.18;7.57;;;;;;;;;;5064761;28;20052;-82
2021/12/30 05:08:18;;;;;;;10.82;6.32;;;;;;;;;;5047663;28;20040;-81
2021/12/30 05:10:44;;;;;;;11.20;5.68;;;;;;;;;;5047303;28;20048;-81
2021/12/30 05:13:10;;;;;;;5.93;4.15;;;;;;;;;;5064960;28;20064;-81
2021/12/30 05:15:36;;;;;;;8.18;4.32;;;;;;;;;;5048536;28;20388;-81
2021/12/30 05:18:03;;;;;;;4.70;3.50;;;;;;;;;;5054308;28;20056;-81
2021/12/30 05:20:29;;;;;;;4.00;2.90;;;;;;;;;;5046893;28;20044;-82
2021/12/30 05:22:55;;;;;;;4.10;2.47;;;;;;;;;;5045454;28;20368;-82
2021/12/30 05:25:21;;;;;;;3.97;2.30;;;;;;;;;;5045003;28;20045;-82
2021/12/30 05:27:47;;;;;;;2.80;1.73;;;;;;;;;;5044588;28;20041;-82
2021/12/30 05:30:14;;;;;;;2.25;1.67;;;;;;;;;;5070373;28;20041;-81
2021/12/30 05:32:41;;;;;;;2.25;1.65;;;;;;;;;;5062068;28;20068;-82
2021/12/30 05:35:07;;;;;;;1.77;1.20;;;;;;;;;;5045214;28;20041;-81
2021/12/30 05:37:33;;;;;;;1.70;1.08;;;;;;;;;;5064161;28;20102;-82
2021/12/30 05:39:59;;;;;;;2.80;1.13;;;;;;;;;;5047061;28;20041;-82
2021/12/30 05:42:25;;;;;;;1.13;0.88;;;;;;;;;;5046564;28;20494;-82
2021/12/30 05:44:52;;;;;;;1.73;1.00;;;;;;;;;;5062129;28;20037;-82
2021/12/30 05:47:18;;;;;;;2.50;0.98;;;;;;;;;;5046656;28;20065;-81
2021/12/30 05:49:44;;;;;;;2.22;0.88;;;;;;;;;;5063006;28;20036;-80
2021/12/30 05:52:11;;;;;;;1.30;0.90;;;;;;;;;;5046953;28;20039;-81
2021/12/30 05:54:37;;;;;;;2.58;0.98;;;;;;;;;;5051698;28;20044;-82
2021/12/30 05:57:03;;;;;;;1.45;0.90;;;;;;;;;;5046447;28;20037;-81
2021/12/30 05:59:29;;;;;;;1.45;0.88;;;;;;;;;;5062528;28;20033;-82
2021/12/30 06:01:55;;;;;;;2.08;1.25;;;;;;;;;;5045720;28;20072;-82
2021/12/30 06:04:21;;;;;;;1.20;0.77;;;;;;;;;;5046673;28;20052;-82
2021/12/30 06:06:47;;;;;;;1.77;0.90;;;;;;;;;;5046647;28;20055;-80
2021/12/30 06:09:13;;;;;;;4.32;0.73;;;;;;;;;;5063012;28;20055;-81
2021/12/30 06:11:39;;;;;;;1.27;0.90;;;;;;;;;;5062745;28;20372;-82
2021/12/30 06:14:05;;;;;;;3.58;1.70;;;;;;;;;;5064406;28;20037;-82
2021/12/30 06:16:32;;;;;;;2.42;1.25;;;;;;;;;;5062967;28;20036;-82
2021/12/30 06:18:59;;;;;;;3.35;2.13;;;;;;;;;;5069653;28;20076;-82
2021/12/30 06:21:25;;;;;;;3.17;2.35;;;;;;;;;;5064670;28;20056;-82
2021/12/30 06:23:51;;;;;;;5.15;2.47;;;;;;;;;;5047947;28;20037;-83
2021/12/30 06:26:17;;;;;;;5.00;3.17;;;;;;;;;;5048582;28;20039;-82
2021/12/30 06:28:43;;;;;;;4.97;3.38;;;;;;;;;;5047089;28;20037;-82
2021/12/30 06:31:09;;;;;;;5.47;3.22;;;;;;;;;;5061993;28;20041;-80
2021/12/30 06:33:35;;;;;;;4.65;3.65;;;;;;;;;;5061856;28;20048;-81
2021/12/30 06:36:01;;;;;;;5.25;3.60;;;;;;;;;;5061538;28;20040;-80
2021/12/30 06:38:27;;;;;;;4.70;3.58;;;;;;;;;;5043941;28;20033;-81
2021/12/30 06:40:53;;;;;;;5.78;3.38;;;;;;;;;;5060915;28;20037;-83
2021/12/30 06:43:19;;;;;;;4.03;3.38;;;;;;;;;;5060803;28;20360;-81
2021/12/30 06:45:45;;;;;;;4.60;3.83;;;;;;;;;;5043429;28;20043;-82
2021/12/30 06:48:14;;;;;;;4.55;3.83;;;;;;;;;;5060413;28;20362;-82
2021/12/30 06:50:41;;;;;;;6.43;4.32;;;;;;;;;;5048202;28;20118;-81
2021/12/30 06:53:07;;;;;;;4.63;3.95;;;;;;;;;;5047449;28;20040;-81
2021/12/30 06:55:33;;;;;;;5.32;4.07;;;;;;;;;;5062103;28;20116;-81
2021/12/30 06:57:59;;;;;;;5.30;4.30;;;;;;;;;;5044367;28;20060;-81
2021/12/30 07:00:25;;;;;;;5.53;4.32;;;;;;;;;;5062308;28;20037;-80
2021/12/30 07:02:51;;;;;;;6.32;4.82;;;;;;;;;;5055913;28;20045;-79
2021/12/30 07:05:17;;;;;;;6.38;4.90;;;;;;;;;;5077349;28;20037;-81
2021/12/30 07:07:44;;;;;;;6.63;4.40;;;;;;;;;;5062292;28;20043;-81
2021/12/30 07:10:10;;;;;;;5.32;4.32;;;;;;;;;;5044719;28;20136;-80
2021/12/30 07:12:37;;;;;;;7.00;4.15;;;;;;;;;;5060216;28;20048;-81
2021/12/30 07:15:04;;;;;;;4.97;4.25;;;;;;;;;;5042944;28;20041;-81
2021/12/30 07:17:31;;;;;;;5.65;4.57;;;;;;;;;;5044801;28;20040;-81
2021/12/30 07:19:57;;;;;;;6.22;4.70;;;;;;;;;;5044028;28;20036;-81
2021/12/30 07:22:23;;;;;;;6.70;4.95;;;;;;;;;;5064093;28;20098;-81
2021/12/30 07:24:49;;;;;;;7.35;5.18;;;;;;;;;;5044704;28;20097;-82
2021/12/30 07:27:15;;;;;;;6.57;5.20;;;;;;;;;;5044210;28;20072;-82
2021/12/30 07:29:41;;;;;;;6.80;5.63;;;;;;;;;;5062972;28;20341;-83
2021/12/30 07:32:07;;;;;;;7.95;5.28;;;;;;;;;;5046724;28;20040;-81
2021/12/30 07:34:34;;;;;;;7.57;5.30;;;;;;;;;;5046428;28;20364;-81
2021/12/30 07:37:00;;;;;;;5.50;4.57;;;;;;;;;;5044471;28;20041;-84
2021/12/30 07:39:25;;;;;;;6.07;3.88;;;;;;;;;;5060078;28;20100;-84
2021/12/30 07:41:51;;;;;;;4.75;3.55;;;;;;;;;;5059033;28;20041;-81
2021/12/30 07:44:17;;;;;;;6.35;3.58;;;;;;;;;;5056632;28;20045;-82
2021/12/30 07:46:44;;;;;;;5.03;3.25;;;;;;;;;;5057419;28;20112;-82
2021/12/30 07:49:10;;;;;;;8.65;3.63;;;;;;;;;;5041575;28;20091;-82
2021/12/30 07:51:36;;;;;;;4.57;3.42;;;;;;;;;;5060410;28;20045;-80
2021/12/30 07:54:02;;;;;;;7.00;3.70;;;;;;;;;;5069787;28;20075;-83
2021/12/30 07:56:28;;;;;;;4.63;3.60;;;;;;;;;;5043104;28;20064;-82
2021/12/30 07:58:54;;;;;;;5.45;3.65;;;;;;;;;;5061113;28;20037;-82
2021/12/30 08:01:25;;;;;;;4.03;3.20;;;;;;;;;;5041890;28;20041;-84
2021/12/30 08:03:58;;;;;;;4.07;2.80;;;;;;;;;;5043849;28;20044;-83
2021/12/30 08:06:27;;;;;;;4.00;3.03;;;;;;;;;;5059868;28;20036;-85
2021/12/30 08:08:53;;;;;;;6.13;2.85;;;;;;;;;;5060379;28;20029;-84
2021/12/30 08:11:19;;;;;;;3.60;2.60;;;;;;;;;;5060260;28;20036;-85
2021/12/30 08:13:45;;;;;;;2.88;2.17;;;;;;;;;;5044356;28;20041;-83
2021/12/30 08:16:13;;;;;;;3.08;2.50;;;;;;;;;;5045046;28;20040;-81
2021/12/30 08:18:39;;;;;;;5.10;2.78;;;;;;;;;;5044861;28;20041;-83
2021/12/30 08:21:05;;;;;;;4.25;2.40;;;;;;;;;;5040830;28;20107;-81
2021/12/30 08:23:31;;;;;;;3.13;2.20;;;;;;;;;;5040924;28;20048;-82
2021/12/30 08:25:57;;;;;;;5.38;2.30;;;;;;;;;;5040277;28;20037;-81
2021/12/30 08:28:25;;;;;;;2.75;2.10;;;;;;;;;;5058168;28;20491;-82
2021/12/30 08:30:51;;;;;;;3.17;2.13;;;;;;;;;;5057546;28;20037;-82
2021/12/30 08:33:17;;;;;;;3.90;2.10;;;;;;;;;;5057314;28;20037;-82
2021/12/30 08:35:43;;;;;;;2.33;2.00;;;;;;;;;;5059110;28;20067;-81
2021/12/30 08:38:09;;;;;;;3.80;2.30;;;;;;;;;;5063613;28;20029;-81
2021/12/30 08:40:35;;;;;;;4.05;2.20;;;;;;;;;;5059117;28;20049;-86
2021/12/30 08:43:01;;;;;;;3.03;2.08;;;;;;;;;;5052342;28;20163;-83
2021/12/30 08:45:27;;;;;;;3.35;2.17;;;;;;;;;;5050087;28;20124;-80
2021/12/30 08:47:54;;;;;;;3.28;2.42;;;;;;;;;;5066547;28;20049;-83
2021/12/30 08:50:20;;;;;;;4.13;2.70;;;;;;;;;;5056898;28;20067;-83
2021/12/30 08:52:46;;;;;;;5.03;2.30;;;;;;;;;;5057486;28;20119;-81
2021/12/30 08:55:13;;;;;;;3.42;2.70;;;;;;;;;;5040917;28;20076;-82
2021/12/30 08:57:40;;;;;;;5.18;2.60;;;;;;;;;;5040291;28;20061;-81
2021/12/30 09:00:12;;;;;;;2.63;2.22;;;;;;;;;;5041155;28;20403;-82
2021/12/30 09:02:38;;;;;;;3.80;2.92;;;;;;;;;;5045408;28;20033;-83
2021/12/30 09:05:06;;;;;;;4.07;2.65;;;;;;;;;;5064799;28;20037;-83
2021/12/30 09:07:34;;;;;;;3.63;2.78;;;;;;;;;;5074078;28;20037;-84
2021/12/30 09:10:03;;;;;;;4.22;2.30;;;;;;;;;;5067618;28;20124;-84
2021/12/30 09:12:29;;;;;;;5.72;2.65;;;;;;;;;;5061605;28;20056;-83
2021/12/30 09:14:57;;;;;;;4.18;2.33;;;;;;;;;;5045157;28;20033;-83
2021/12/30 09:17:23;;;;;;;4.35;2.28;;;;;;;;;;5061590;28;20055;-82
2021/12/30 09:19:49;;;;;;;2.85;2.10;;;;;;;;;;5046426;28;20100;-83
2021/12/30 09:22:15;;;;;;;3.53;2.00;;;;;;;;;;5045622;28;20052;-84
2021/12/30 09:24:44;;;;;;;3.42;2.30;;;;;;;;;;5050378;28;20051;-83
2021/12/30 09:27:10;;;;;;;2.53;1.63;;;;;;;;;;5076216;28;20030;-84
2021/12/30 09:29:37;;;;;;;2.42;1.77;;;;;;;;;;5077581;28;20049;-84
2021/12/30 09:32:03;;;;;;;2.20;1.80;;;;;;;;;;5066002;28;20049;-83
2021/12/30 09:34:30;;;;;;;2.05;1.52;;;;;;;;;;5066409;28;20056;-84
2021/12/30 09:36:59;;;;;;;2.60;1.67;;;;;;;;;;5051136;28;20037;-85
2021/12/30 09:39:25;;;;;;;2.30;1.67;;;;;;;;;;5068357;28;20047;-84
2021/12/30 09:41:51;;;;;;;2.50;1.50;;;;;;;;;;5050895;28;20045;-82
2021/12/30 09:44:18;;;;;;;2.20;1.48;;;;;;;;;;5049700;28;20041;-82
2021/12/30 09:46:45;;;;;;;2.10;1.55;;;;;;;;;;5049904;28;20465;-83
2021/12/30 09:49:13;;;;;;;2.17;1.55;;;;;;;;;;5028477;28;20523;-82
2021/12/30 09:51:39;;;;;;;2.70;1.55;;;;;;;;;;5013040;28;20367;-84
2021/12/30 09:54:05;;;;;;;2.50;1.52;;;;;;;;;;5029105;28;20120;-83
2021/12/30 09:56:31;;;;;;;4.15;1.80;;;;;;;;;;5029124;28;20369;-83
2021/12/30 09:58:57;;;;;;;3.00;1.90;;;;;;;;;;5012465;28;20119;-84
2021/12/30 10:01:23;;;;;;;3.60;1.77;;;;;;;;;;5013241;28;20087;-80
2021/12/30 10:03:51;;;;;;;3.35;2.10;;;;;;;;;;5012261;28;20041;-82
2021/12/30 10:06:19;;;;;;;4.75;2.30;;;;;;;;;;5013272;28;20111;-85
2021/12/30 10:08:58;;;;;;;3.53;2.03;;;;;;;;;;5028770;28;20037;-83
2021/12/30 10:11:24;;;;;;;6.45;2.03;;;;;;;;;;5011176;28;20037;-83
2021/12/30 10:13:53;;;;;;;3.75;2.00;;;;;;;;;;5012133;28;20033;-82
2021/12/30 10:16:19;;;;;;;4.05;2.10;;;;;;;;;;5014652;28;20487;-83
2021/12/30 10:18:52;;;;;;;3.97;1.90;;;;;;;;;;5008500;28;20057;-83
2021/12/30 10:21:22;;;;;;;3.78;1.70;;;;;;;;;;5044818;28;20037;-81
2021/12/30 10:23:56;;;;;;;4.22;1.90;;;;;;;;;;5043577;28;20124;-80
2021/12/30 10:26:23;;;;;;;3.05;1.88;;;;;;;;;;5043872;28;20096;-81
2021/12/30 10:28:49;;;;;;;2.75;1.98;;;;;;;;;;5059072;28;20049;-82
2021/12/30 10:31:20;;;;;;;4.35;2.47;;;;;;;;;;5043436;28;20431;-81
2021/12/30 10:33:51;;;;;;;4.43;2.58;;;;;;;;;;5065907;28;20041;-83
2021/12/30 10:36:18;;;;;;;3.53;2.80;;;;;;;;;;5045738;28;20033;-83
2021/12/30 10:38:44;;;;;;;5.65;3.10;;;;;;;;;;5055149;28;20037;-82
2021/12/30 10:41:10;;;;;;;5.25;3.13;;;;;;;;;;5053381;28;20091;-85
2021/12/30 10:43:46;;;;;;;4.32;2.80;;;;;;;;;;5050689;28;20059;-83
2021/12/30 10:46:14;;;;;;;3.75;2.40;;;;;;;;;;5055011;28;20036;-83
2021/12/30 10:48:56;;;;;;;3.50;2.53;;;;;;;;;;5067460;28;20049;-82
2021/12/30 10:51:28;;;;;;;3.72;2.22;;;;;;;;;;5062127;28;20483;-82
2021/12/30 10:53:54;;;;;;;5.60;2.63;;;;;;;;;;5045195;28;20048;-82
2021/12/30 10:56:20;;;;;;;5.03;2.97;;;;;;;;;;5063077;28;20037;-80
2021/12/30 10:58:46;;;;;;;3.25;2.22;;;;;;;;;;5070406;28;20124;-80
2021/12/30 11:01:16;;;;;;;4.80;2.70;;;;;;;;;;5053809;28;20063;-83
2021/12/30 11:03:42;;;;;;;5.18;2.60;;;;;;;;;;5061745;28;20044;-81
2021/12/30 11:06:12;;;;;;;5.15;2.17;;;;;;;;;;5066665;28;20045;-82
2021/12/30 11:08:38;;;;;;;3.35;1.80;;;;;;;;;;5063348;28;20433;-81
2021/12/30 11:11:23;;;;;;;2.83;1.88;;;;;;;;;;5062134;28;20142;-83
2021/12/30 11:14:02;;;;;;;4.78;2.80;;;;;;;;;;5045502;28;20037;-84
2021/12/30 11:16:28;;;;;;;5.93;2.85;;;;;;;;;;5062501;28;20089;-84
2021/12/30 11:18:57;;;;;;;3.67;1.80;;;;;;;;;;5045490;28;20036;-84
2021/12/30 11:21:42;;;;;;;3.80;2.30;;;;;;;;;;5045057;28;20083;-84
2021/12/30 11:24:09;;;;;;;5.22;2.50;;;;;;;;;;5065111;28;20052;-84
2021/12/30 11:26:35;;;;;;;6.55;2.40;;;;;;;;;;5061143;28;20044;-84
2021/12/30 11:29:01;;;;;;;5.55;2.17;;;;;;;;;;5061137;28;20124;-82
2021/12/30 11:31:28;;;;;;;8.57;2.28;;;;;;;;;;5044609;28;20473;-84
2021/12/30 11:33:55;;;;;;;5.40;2.33;;;;;;;;;;5047341;28;20445;-84
2021/12/30 11:36:21;;;;;;;6.10;2.08;;;;;;;;;;5062202;28;20060;-83
2021/12/30 11:38:48;;;;;;;6.13;2.13;;;;;;;;;;5062756;28;20041;-84
2021/12/30 11:41:24;;;;;;;5.07;2.45;;;;;;;;;;5064080;28;20044;-83
2021/12/30 11:43:50;;;;;;;6.72;2.40;;;;;;;;;;5046489;28;20075;-84
2021/12/30 11:46:35;;;;;;;7.18;2.38;;;;;;;;;;5047954;28;20049;-82
2021/12/30 11:49:02;;;;;;;4.13;2.33;;;;;;;;;;5062041;28;20060;-83
2021/12/30 11:51:40;;;;;;;6.53;2.65;;;;;;;;;;5064364;28;20052;-82
2021/12/30 11:54:24;;;;;;;7.28;2.63;;;;;;;;;;5042219;28;20124;-83
2021/12/30 11:57:10;;;;;;;6.70;3.03;;;;;;;;;;5059219;28;20084;-84
2021/12/30 11:59:39;;;;;;;9.40;2.65;;;;;;;;;;5062153;28;20041;-84
2021/12/30 12:02:25;;;;;;;6.68;2.40;;;;;;;;;;5061897;28;20040;-85
2021/12/30 12:04:51;;;;;;;8.20;2.60;;;;;;;;;;5060744;28;20391;-84
2021/12/30 12:07:17;;;;;;;7.50;2.72;;;;;;;;;;5059801;28;20125;-85
2021/12/30 12:09:43;;;;;;;8.57;2.70;;;;;;;;;;5060630;28;20045;-85
2021/12/30 12:12:10;;;;;;;5.70;2.33;;;;;;;;;;5059876;28;20051;-84
2021/12/30 12:14:54;;;;;;;8.55;2.67;;;;;;;;;;5060693;28;20037;-84
2021/12/30 12:17:31;;;;;;;8.38;2.90;;;;;;;;;;5043330;28;20048;-82
2021/12/30 12:19:57;;;;;;;8.93;2.55;;;;;;;;;;5060391;28;20044;-81
2021/12/30 12:22:25;;;;;;;7.57;2.45;;;;;;;;;;5043340;28;20041;-82
2021/12/30 12:24:51;;;;;;;10.75;2.67;;;;;;;;;;5059550;28;20448;-83
2021/12/30 12:27:20;;;;;;;6.97;2.83;;;;;;;;;;5059832;28;20140;-82
2021/12/30 12:29:52;;;;;;;7.10;2.60;;;;;;;;;;5059395;28;20090;-82
2021/12/30 12:32:19;;;;;;;10.02;2.85;;;;;;;;;;5043058;28;20041;-83
2021/12/30 12:34:53;;;;;;;9.32;3.00;;;;;;;;;;5059338;28;20448;-81
2021/12/30 12:37:32;;;;;;;11.60;3.15;;;;;;;;;;5041802;28;20372;-81
2021/12/30 12:39:59;;;;;;;8.90;2.80;;;;;;;;;;5058397;28;20036;-82
2021/12/30 12:42:43;;;;;;;10.60;3.10;;;;;;;;;;5041114;28;20052;-81
2021/12/30 12:45:15;;;;;;;7.28;2.83;;;;;;;;;;5057539;28;20136;-81
2021/12/30 12:47:41;;;;;;;7.80;3.28;;;;;;;;;;5056641;28;20057;-82
2021/12/30 12:50:07;;;;;;;8.70;3.08;;;;;;;;;;5058556;28;20083;-82
2021/12/30 12:52:46;;;;;;;7.22;3.05;;;;;;;;;;5042299;28;20460;-82
2021/12/30 12:55:13;;;;;;;7.25;3.58;;;;;;;;;;5041660;28;20037;-81
2021/12/30 12:57:41;;;;;;;9.73;3.22;;;;;;;;;;5058438;28;20495;-82
2021/12/30 13:00:08;;;;;;;8.73;3.20;;;;;;;;;;5063364;28;20399;-83
2021/12/30 13:02:34;;;;;;;9.50;3.97;;;;;;;;;;5062925;28;20037;-81
2021/12/30 13:05:07;;;;;;;8.40;3.63;;;;;;;;;;5063488;28;20148;-83
2021/12/30 13:07:33;;;;;;;7.57;2.95;;;;;;;;;;5063111;28;20130;-82
2021/12/30 13:09:59;;;;;;;7.93;3.67;;;;;;;;;;5063138;28;20044;-82
2021/12/30 13:12:25;;;;;;;6.72;3.50;;;;;;;;;;5063071;28;20376;-85
2021/12/30 13:14:52;;;;;;;9.70;3.78;;;;;;;;;;5046275;28;20037;-82
2021/12/30 13:17:18;;;;;;;7.28;3.60;;;;;;;;;;5062296;28;20037;-84
2021/12/30 13:19:44;;;;;;;8.43;3.80;;;;;;;;;;5048499;28;20099;-83
2021/12/30 13:22:12;;;;;;;5.88;3.05;;;;;;;;;;5049220;28;20051;-83
2021/12/30 13:24:38;;;;;;;8.23;3.30;;;;;;;;;;5048941;28;20036;-83
2021/12/30 13:27:05;;;;;;;9.23;3.22;;;;;;;;;;5064872;28;20372;-83
2021/12/30 13:29:32;;;;;;;5.63;2.95;;;;;;;;;;5048433;28;20041;-82
2021/12/30 13:32:11;;;;;;;12.25;3.30;;;;;;;;;;5048355;28;20037;-82
2021/12/30 13:34:52;;;;;;;6.47;2.85;;;;;;;;;;5048723;28;20119;-83
2021/12/30 13:37:18;;;;;;;10.40;3.30;;;;;;;;;;5048474;28;20077;-83
2021/12/30 13:39:45;;;;;;;8.05;3.08;;;;;;;;;;5049123;28;20048;-82
2021/12/30 13:42:12;;;;;;;8.68;2.90;;;;;;;;;;5051286;28;20591;-83
2021/12/30 13:44:43;;;;;;;6.78;3.00;;;;;;;;;;5068399;28;20118;-83
2021/12/30 13:47:39;;;;;;;15.43;3.03;;;;;;;;;;5063716;28;20071;-81
2021/12/30 13:50:15;;;;;;;6.30;2.70;;;;;;;;;;5060145;28;20047;-81
2021/12/30 13:52:42;;;;;;;6.50;2.90;;;;;;;;;;5062394;28;20167;-81
2021/12/30 13:55:13;;;;;;;10.02;3.28;;;;;;;;;;5062182;28;20068;-81
2021/12/30 13:57:39;;;;;;;6.65;2.50;;;;;;;;;;5045181;28;20464;-81
2021/12/30 14:00:06;;;;;;;9.07;2.80;;;;;;;;;;5044699;28;20094;-81
2021/12/30 14:02:32;;;;;;;10.98;3.03;;;;;;;;;;5062477;28;20116;-83
2021/12/30 14:05:09;;;;;;;7.30;2.55;;;;;;;;;;5062750;28;20084;-85
2021/12/30 14:07:37;;;;;;;6.80;2.50;;;;;;;;;;5062707;28;20037;-84
2021/12/30 14:10:03;;;;;;;5.90;2.42;;;;;;;;;;5061774;28;20048;-84
2021/12/30 14:12:31;;;;;;;5.40;2.20;;;;;;;;;;5047402;28;20051;-83
2021/12/30 14:15:13;;;;;;;6.70;2.60;;;;;;;;;;5047919;28;20405;-82
2021/12/30 14:17:42;;;;;;;7.32;2.28;;;;;;;;;;5049435;28;20357;-83
2021/12/30 14:20:12;;;;;;;7.05;2.38;;;;;;;;;;5066846;28;20037;-83
2021/12/30 14:22:40;;;;;;;5.75;2.38;;;;;;;;;;5049277;28;20056;-84
2021/12/30 14:25:24;;;;;;;7.07;2.50;;;;;;;;;;5068165;28;20060;-83
2021/12/30 14:27:50;;;;;;;5.68;2.45;;;;;;;;;;5070856;28;20052;-83
2021/12/30 14:30:16;;;;;;;12.43;2.72;;;;;;;;;;5054358;28;20047;-82
2021/12/30 14:32:42;;;;;;;7.13;2.15;;;;;;;;;;5054447;28;20060;-83
2021/12/30 14:35:09;;;;;;;4.95;2.40;;;;;;;;;;5055903;28;20058;-83
2021/12/30 14:37:39;;;;;;;5.90;2.67;;;;;;;;;;5054875;28;20064;-83
2021/12/30 14:40:05;;;;;;;7.70;2.35;;;;;;;;;;5054375;28;20053;-83